Aviation Digital Data Service (ADDS)

Output produced by METARs form (2208 UTC 28 May 2017)
found at http://aviationweather.gov/adds/metars/
 
KCKB 282119Z 2821/2918 22008KT P6SM VCTS SCT045CB BKN080 
     FM282300 21006KT P6SM BKN060 
     FM290600 22005KT 5SM SHRA OVC015 
     FM290800 24006KT P6SM OVC010 
     FM290900 25007KT P6SM OVC008 
     FM291400 26007KT P6SM SCT025 
     FM291700 26008KT P6SM SCT250